sensor_id;sensor_type;location;lat;lon;timestamp;P1;durP1;ratioP1;P2;durP2;ratioP2
20657;SDS011;10488;50.846;4.078;2023-01-05T00:01:45;33.47;;;5.82;;
20657;SDS011;10488;50.846;4.078;2023-01-05T00:04:11;33.70;;;5.75;;
20657;SDS011;10488;50.846;4.078;2023-01-05T00:06:37;38.58;;;5.65;;
20657;SDS011;10488;50.846;4.078;2023-01-05T00:09:04;33.03;;;6.40;;
20657;SDS011;10488;50.846;4.078;2023-01-05T00:11:31;39.97;;;6.38;;
20657;SDS011;10488;50.846;4.078;2023-01-05T00:14:16;26.25;;;5.75;;
20657;SDS011;10488;50.846;4.078;2023-01-05T00:17:02;39.00;;;6.35;;
20657;SDS011;10488;50.846;4.078;2023-01-05T00:19:47;33.10;;;5.13;;
20657;SDS011;10488;50.846;4.078;2023-01-05T00:22:31;38.58;;;5.75;;
20657;SDS011;10488;50.846;4.078;2023-01-05T00:27:27;35.53;;;6.13;;
20657;SDS011;10488;50.846;4.078;2023-01-05T00:29:54;33.92;;;6.05;;
20657;SDS011;10488;50.846;4.078;2023-01-05T00:32:20;28.40;;;5.65;;
20657;SDS011;10488;50.846;4.078;2023-01-05T00:34:46;32.10;;;5.50;;
20657;SDS011;10488;50.846;4.078;2023-01-05T00:37:12;38.08;;;5.22;;
20657;SDS011;10488;50.846;4.078;2023-01-05T00:39:37;32.55;;;5.55;;
20657;SDS011;10488;50.846;4.078;2023-01-05T00:42:03;29.17;;;5.13;;
20657;SDS011;10488;50.846;4.078;2023-01-05T00:44:28;34.90;;;6.85;;
20657;SDS011;10488;50.846;4.078;2023-01-05T00:46:54;41.42;;;5.72;;
20657;SDS011;10488;50.846;4.078;2023-01-05T00:49:20;33.10;;;5.68;;
20657;SDS011;10488;50.846;4.078;2023-01-05T00:51:45;32.42;;;5.82;;
20657;SDS011;10488;50.846;4.078;2023-01-05T00:54:11;39.13;;;5.78;;
20657;SDS011;10488;50.846;4.078;2023-01-05T00:56:36;31.33;;;5.22;;
20657;SDS011;10488;50.846;4.078;2023-01-05T00:59:02;40.95;;;6.90;;
20657;SDS011;10488;50.846;4.078;2023-01-05T01:01:28;37.47;;;7.20;;
20657;SDS011;10488;50.846;4.078;2023-01-05T01:03:54;36.15;;;6.15;;
20657;SDS011;10488;50.846;4.078;2023-01-05T01:06:20;35.30;;;6.47;;
20657;SDS011;10488;50.846;4.078;2023-01-05T01:08:46;26.52;;;5.50;;
20657;SDS011;10488;50.846;4.078;2023-01-05T01:11:12;33.38;;;5.95;;
20657;SDS011;10488;50.846;4.078;2023-01-05T01:13:40;40.33;;;5.82;;
20657;SDS011;10488;50.846;4.078;2023-01-05T01:16:10;35.50;;;5.90;;
20657;SDS011;10488;50.846;4.078;2023-01-05T01:18:37;38.08;;;5.82;;
20657;SDS011;10488;50.846;4.078;2023-01-05T01:21:04;40.90;;;6.55;;
20657;SDS011;10488;50.846;4.078;2023-01-05T01:23:30;29.70;;;6.28;;
20657;SDS011;10488;50.846;4.078;2023-01-05T01:25:58;31.48;;;6.05;;
20657;SDS011;10488;50.846;4.078;2023-01-05T01:28:27;33.00;;;6.40;;
20657;SDS011;10488;50.846;4.078;2023-01-05T01:30:53;44.05;;;6.05;;
20657;SDS011;10488;50.846;4.078;2023-01-05T01:33:20;37.97;;;6.75;;
20657;SDS011;10488;50.846;4.078;2023-01-05T01:35:46;32.85;;;7.40;;
20657;SDS011;10488;50.846;4.078;2023-01-05T01:38:12;32.28;;;6.43;;
20657;SDS011;10488;50.846;4.078;2023-01-05T01:40:41;32.88;;;5.93;;
20657;SDS011;10488;50.846;4.078;2023-01-05T01:43:14;42.10;;;6.25;;
20657;SDS011;10488;50.846;4.078;2023-01-05T01:45:42;36.17;;;6.05;;
20657;SDS011;10488;50.846;4.078;2023-01-05T01:48:08;35.72;;;6.13;;
20657;SDS011;10488;50.846;4.078;2023-01-05T01:50:40;42.30;;;6.65;;
20657;SDS011;10488;50.846;4.078;2023-01-05T01:53:11;39.70;;;6.30;;
20657;SDS011;10488;50.846;4.078;2023-01-05T01:55:40;35.83;;;5.97;;
20657;SDS011;10488;50.846;4.078;2023-01-05T01:58:08;33.75;;;6.82;;
20657;SDS011;10488;50.846;4.078;2023-01-05T02:00:40;47.55;;;6.78;;
20657;SDS011;10488;50.846;4.078;2023-01-05T02:03:07;27.23;;;6.05;;
20657;SDS011;10488;50.846;4.078;2023-01-05T02:05:33;37.25;;;5.90;;
20657;SDS011;10488;50.846;4.078;2023-01-05T02:08:02;36.20;;;6.68;;
20657;SDS011;10488;50.846;4.078;2023-01-05T02:21:50;46.72;;;5.55;;
20657;SDS011;10488;50.846;4.078;2023-01-05T02:24:39;32.67;;;6.43;;
20657;SDS011;10488;50.846;4.078;2023-01-05T02:27:26;33.70;;;6.47;;
20657;SDS011;10488;50.846;4.078;2023-01-05T02:35:49;34.78;;;6.97;;
20657;SDS011;10488;50.846;4.078;2023-01-05T02:38:26;39.13;;;6.32;;
20657;SDS011;10488;50.846;4.078;2023-01-05T02:41:11;34.08;;;5.63;;
20657;SDS011;10488;50.846;4.078;2023-01-05T02:43:43;45.53;;;6.88;;
20657;SDS011;10488;50.846;4.078;2023-01-05T02:46:09;36.25;;;6.88;;
20657;SDS011;10488;50.846;4.078;2023-01-05T02:48:35;32.45;;;5.63;;
20657;SDS011;10488;50.846;4.078;2023-01-05T02:51:06;42.25;;;7.35;;
20657;SDS011;10488;50.846;4.078;2023-01-05T02:53:38;35.72;;;6.22;;
20657;SDS011;10488;50.846;4.078;2023-01-05T02:56:12;40.40;;;6.97;;
20657;SDS011;10488;50.846;4.078;2023-01-05T02:58:47;30.00;;;5.10;;
20657;SDS011;10488;50.846;4.078;2023-01-05T03:01:21;37.40;;;6.70;;
20657;SDS011;10488;50.846;4.078;2023-01-05T03:03:53;37.95;;;5.78;;
20657;SDS011;10488;50.846;4.078;2023-01-05T03:06:32;30.90;;;6.22;;
20657;SDS011;10488;50.846;4.078;2023-01-05T03:09:11;43.90;;;6.45;;
20657;SDS011;10488;50.846;4.078;2023-01-05T03:11:44;30.90;;;5.95;;
20657;SDS011;10488;50.846;4.078;2023-01-05T03:14:42;39.20;;;6.28;;
20657;SDS011;10488;50.846;4.078;2023-01-05T03:17:13;40.05;;;6.93;;
20657;SDS011;10488;50.846;4.078;2023-01-05T03:19:41;46.50;;;8.07;;
20657;SDS011;10488;50.846;4.078;2023-01-05T03:22:20;35.38;;;6.32;;
20657;SDS011;10488;50.846;4.078;2023-01-05T03:25:09;44.17;;;6.72;;
20657;SDS011;10488;50.846;4.078;2023-01-05T03:27:55;39.42;;;5.85;;
20657;SDS011;10488;50.846;4.078;2023-01-05T03:31:02;29.63;;;5.13;;
20657;SDS011;10488;50.846;4.078;2023-01-05T03:34:10;37.17;;;6.65;;
20657;SDS011;10488;50.846;4.078;2023-01-05T03:37:12;30.02;;;4.90;;
20657;SDS011;10488;50.846;4.078;2023-01-05T03:39:43;39.17;;;6.70;;
20657;SDS011;10488;50.846;4.078;2023-01-05T03:42:11;39.20;;;5.65;;
20657;SDS011;10488;50.846;4.078;2023-01-05T03:44:38;34.22;;;6.80;;
20657;SDS011;10488;50.846;4.078;2023-01-05T03:47:05;36.50;;;6.68;;
20657;SDS011;10488;50.846;4.078;2023-01-05T03:49:31;35.10;;;6.05;;
20657;SDS011;10488;50.846;4.078;2023-01-05T03:51:57;33.28;;;6.28;;
20657;SDS011;10488;50.846;4.078;2023-01-05T03:54:23;40.08;;;6.80;;
20657;SDS011;10488;50.846;4.078;2023-01-05T03:56:48;35.10;;;5.80;;
20657;SDS011;10488;50.846;4.078;2023-01-05T03:59:14;42.42;;;6.35;;
20657;SDS011;10488;50.846;4.078;2023-01-05T04:01:41;39.58;;;7.15;;
20657;SDS011;10488;50.846;4.078;2023-01-05T04:04:06;31.08;;;5.72;;
20657;SDS011;10488;50.846;4.078;2023-01-05T04:06:32;34.17;;;6.22;;
20657;SDS011;10488;50.846;4.078;2023-01-05T04:08:57;38.22;;;6.43;;
20657;SDS011;10488;50.846;4.078;2023-01-05T04:11:23;37.80;;;6.22;;
20657;SDS011;10488;50.846;4.078;2023-01-05T04:13:49;30.95;;;6.05;;
20657;SDS011;10488;50.846;4.078;2023-01-05T04:16:15;33.88;;;7.28;;
20657;SDS011;10488;50.846;4.078;2023-01-05T04:18:41;35.83;;;6.85;;
20657;SDS011;10488;50.846;4.078;2023-01-05T04:21:07;41.00;;;6.28;;
20657;SDS011;10488;50.846;4.078;2023-01-05T04:23:33;30.30;;;6.13;;
20657;SDS011;10488;50.846;4.078;2023-01-05T04:25:58;36.15;;;6.30;;
20657;SDS011;10488;50.846;4.078;2023-01-05T04:28:24;32.20;;;6.55;;
20657;SDS011;10488;50.846;4.078;2023-01-05T04:30:51;36.50;;;5.95;;
20657;SDS011;10488;50.846;4.078;2023-01-05T04:33:19;38.22;;;6.60;;
20657;SDS011;10488;50.846;4.078;2023-01-05T04:35:45;37.88;;;5.70;;
20657;SDS011;10488;50.846;4.078;2023-01-05T04:38:11;30.65;;;5.30;;
20657;SDS011;10488;50.846;4.078;2023-01-05T04:40:37;32.40;;;5.97;;
20657;SDS011;10488;50.846;4.078;2023-01-05T04:43:03;42.00;;;6.28;;
20657;SDS011;10488;50.846;4.078;2023-01-05T04:45:29;40.75;;;6.32;;
20657;SDS011;10488;50.846;4.078;2023-01-05T04:47:55;35.60;;;6.60;;
20657;SDS011;10488;50.846;4.078;2023-01-05T04:50:21;34.67;;;5.78;;
20657;SDS011;10488;50.846;4.078;2023-01-05T04:52:47;40.83;;;6.85;;
20657;SDS011;10488;50.846;4.078;2023-01-05T04:55:13;40.78;;;6.50;;
20657;SDS011;10488;50.846;4.078;2023-01-05T04:57:38;29.90;;;6.30;;
20657;SDS011;10488;50.846;4.078;2023-01-05T05:00:04;35.05;;;7.03;;
20657;SDS011;10488;50.846;4.078;2023-01-05T05:02:31;34.58;;;5.63;;
20657;SDS011;10488;50.846;4.078;2023-01-05T05:04:57;40.38;;;6.88;;
20657;SDS011;10488;50.846;4.078;2023-01-05T05:07:23;36.47;;;7.38;;
20657;SDS011;10488;50.846;4.078;2023-01-05T05:09:49;34.78;;;6.35;;
20657;SDS011;10488;50.846;4.078;2023-01-05T05:12:14;34.30;;;6.22;;
20657;SDS011;10488;50.846;4.078;2023-01-05T05:14:44;34.15;;;6.38;;
20657;SDS011;10488;50.846;4.078;2023-01-05T05:17:11;37.25;;;6.47;;
20657;SDS011;10488;50.846;4.078;2023-01-05T05:19:36;40.90;;;6.95;;
20657;SDS011;10488;50.846;4.078;2023-01-05T05:22:02;34.47;;;6.32;;
20657;SDS011;10488;50.846;4.078;2023-01-05T05:24:28;36.35;;;6.50;;
20657;SDS011;10488;50.846;4.078;2023-01-05T05:26:53;41.10;;;6.80;;
20657;SDS011;10488;50.846;4.078;2023-01-05T05:29:21;43.45;;;6.28;;
20657;SDS011;10488;50.846;4.078;2023-01-05T05:31:47;48.72;;;6.55;;
20657;SDS011;10488;50.846;4.078;2023-01-05T05:34:13;40.75;;;6.40;;
20657;SDS011;10488;50.846;4.078;2023-01-05T05:36:38;36.22;;;6.80;;
20657;SDS011;10488;50.846;4.078;2023-01-05T05:39:04;39.67;;;6.68;;
20657;SDS011;10488;50.846;4.078;2023-01-05T05:41:29;41.90;;;6.60;;
20657;SDS011;10488;50.846;4.078;2023-01-05T05:43:55;38.40;;;6.70;;
20657;SDS011;10488;50.846;4.078;2023-01-05T05:46:25;40.05;;;6.43;;
20657;SDS011;10488;50.846;4.078;2023-01-05T05:48:52;38.72;;;5.57;;
20657;SDS011;10488;50.846;4.078;2023-01-05T05:51:18;35.03;;;5.95;;
20657;SDS011;10488;50.846;4.078;2023-01-05T05:53:44;48.33;;;6.32;;
20657;SDS011;10488;50.846;4.078;2023-01-05T05:56:09;37.20;;;6.15;;
20657;SDS011;10488;50.846;4.078;2023-01-05T05:58:35;32.22;;;6.40;;
20657;SDS011;10488;50.846;4.078;2023-01-05T06:01:01;31.80;;;6.20;;
20657;SDS011;10488;50.846;4.078;2023-01-05T06:03:26;38.95;;;7.35;;
20657;SDS011;10488;50.846;4.078;2023-01-05T06:05:52;32.00;;;6.43;;
20657;SDS011;10488;50.846;4.078;2023-01-05T06:08:18;44.08;;;7.57;;
20657;SDS011;10488;50.846;4.078;2023-01-05T06:10:44;36.42;;;7.78;;
20657;SDS011;10488;50.846;4.078;2023-01-05T06:13:09;38.45;;;5.85;;
20657;SDS011;10488;50.846;4.078;2023-01-05T06:15:35;34.63;;;6.05;;
20657;SDS011;10488;50.846;4.078;2023-01-05T06:18:00;43.22;;;6.50;;
20657;SDS011;10488;50.846;4.078;2023-01-05T06:20:26;45.17;;;6.57;;
20657;SDS011;10488;50.846;4.078;2023-01-05T06:22:52;41.05;;;6.53;;
20657;SDS011;10488;50.846;4.078;2023-01-05T06:25:17;38.53;;;6.63;;
20657;SDS011;10488;50.846;4.078;2023-01-05T06:27:43;40.58;;;6.03;;
20657;SDS011;10488;50.846;4.078;2023-01-05T06:30:09;35.47;;;6.00;;
20657;SDS011;10488;50.846;4.078;2023-01-05T06:32:34;42.05;;;6.63;;
20657;SDS011;10488;50.846;4.078;2023-01-05T06:35:00;36.10;;;7.25;;
20657;SDS011;10488;50.846;4.078;2023-01-05T06:37:26;36.22;;;6.80;;
20657;SDS011;10488;50.846;4.078;2023-01-05T06:39:51;40.53;;;5.82;;
20657;SDS011;10488;50.846;4.078;2023-01-05T06:42:20;37.95;;;6.47;;
20657;SDS011;10488;50.846;4.078;2023-01-05T06:44:45;37.05;;;5.95;;
20657;SDS011;10488;50.846;4.078;2023-01-05T06:47:11;32.88;;;6.30;;
20657;SDS011;10488;50.846;4.078;2023-01-05T06:49:37;44.70;;;6.95;;
20657;SDS011;10488;50.846;4.078;2023-01-05T06:52:03;35.05;;;6.45;;
20657;SDS011;10488;50.846;4.078;2023-01-05T06:54:29;43.05;;;6.50;;
20657;SDS011;10488;50.846;4.078;2023-01-05T06:56:54;33.95;;;6.07;;
20657;SDS011;10488;50.846;4.078;2023-01-05T06:59:20;32.53;;;5.82;;
20657;SDS011;10488;50.846;4.078;2023-01-05T07:01:56;25.08;;;5.18;;
20657;SDS011;10488;50.846;4.078;2023-01-05T07:04:22;34.53;;;5.63;;
20657;SDS011;10488;50.846;4.078;2023-01-05T07:06:48;36.33;;;5.25;;
20657;SDS011;10488;50.846;4.078;2023-01-05T07:09:14;36.90;;;5.88;;
20657;SDS011;10488;50.846;4.078;2023-01-05T07:11:39;45.78;;;6.00;;
20657;SDS011;10488;50.846;4.078;2023-01-05T07:14:05;34.10;;;5.82;;
20657;SDS011;10488;50.846;4.078;2023-01-05T07:16:30;31.05;;;6.50;;
20657;SDS011;10488;50.846;4.078;2023-01-05T07:18:56;32.58;;;5.78;;
20657;SDS011;10488;50.846;4.078;2023-01-05T07:21:22;43.25;;;6.00;;
20657;SDS011;10488;50.846;4.078;2023-01-05T07:23:47;30.98;;;5.68;;
20657;SDS011;10488;50.846;4.078;2023-01-05T07:26:13;35.90;;;6.47;;
20657;SDS011;10488;50.846;4.078;2023-01-05T07:28:39;38.25;;;5.72;;
20657;SDS011;10488;50.846;4.078;2023-01-05T07:31:05;26.38;;;6.20;;
20657;SDS011;10488;50.846;4.078;2023-01-05T07:33:36;32.28;;;5.57;;
20657;SDS011;10488;50.846;4.078;2023-01-05T07:36:02;43.42;;;5.45;;
20657;SDS011;10488;50.846;4.078;2023-01-05T07:38:29;32.67;;;5.85;;
20657;SDS011;10488;50.846;4.078;2023-01-05T07:40:59;34.28;;;6.00;;
20657;SDS011;10488;50.846;4.078;2023-01-05T07:43:25;31.05;;;5.53;;
20657;SDS011;10488;50.846;4.078;2023-01-05T07:45:55;32.33;;;5.55;;
20657;SDS011;10488;50.846;4.078;2023-01-05T07:48:22;34.15;;;6.00;;
20657;SDS011;10488;50.846;4.078;2023-01-05T07:50:47;33.70;;;5.78;;
20657;SDS011;10488;50.846;4.078;2023-01-05T07:53:13;38.88;;;6.22;;
20657;SDS011;10488;50.846;4.078;2023-01-05T07:55:38;50.33;;;7.43;;
20657;SDS011;10488;50.846;4.078;2023-01-05T07:58:04;42.20;;;6.15;;
20657;SDS011;10488;50.846;4.078;2023-01-05T08:00:30;38.72;;;7.13;;
20657;SDS011;10488;50.846;4.078;2023-01-05T08:02:55;50.53;;;7.47;;
20657;SDS011;10488;50.846;4.078;2023-01-05T08:05:21;36.10;;;6.30;;
20657;SDS011;10488;50.846;4.078;2023-01-05T08:07:46;41.35;;;7.07;;
20657;SDS011;10488;50.846;4.078;2023-01-05T08:10:12;42.47;;;6.70;;
20657;SDS011;10488;50.846;4.078;2023-01-05T08:12:53;33.53;;;6.25;;
20657;SDS011;10488;50.846;4.078;2023-01-05T08:15:37;36.35;;;6.72;;
20657;SDS011;10488;50.846;4.078;2023-01-05T08:18:04;42.92;;;7.28;;
20657;SDS011;10488;50.846;4.078;2023-01-05T08:20:29;36.15;;;6.95;;
20657;SDS011;10488;50.846;4.078;2023-01-05T08:22:55;43.22;;;6.80;;
20657;SDS011;10488;50.846;4.078;2023-01-05T08:25:20;42.00;;;6.57;;
20657;SDS011;10488;50.846;4.078;2023-01-05T08:27:46;31.05;;;6.53;;
20657;SDS011;10488;50.846;4.078;2023-01-05T08:30:12;35.55;;;6.00;;
20657;SDS011;10488;50.846;4.078;2023-01-05T08:32:39;44.08;;;6.63;;
20657;SDS011;10488;50.846;4.078;2023-01-05T08:35:05;40.50;;;6.80;;
20657;SDS011;10488;50.846;4.078;2023-01-05T08:37:30;40.50;;;6.22;;
20657;SDS011;10488;50.846;4.078;2023-01-05T08:39:56;35.50;;;6.88;;
20657;SDS011;10488;50.846;4.078;2023-01-05T08:42:22;38.03;;;6.35;;
20657;SDS011;10488;50.846;4.078;2023-01-05T08:44:47;33.83;;;6.93;;
20657;SDS011;10488;50.846;4.078;2023-01-05T08:47:13;34.70;;;6.20;;
20657;SDS011;10488;50.846;4.078;2023-01-05T08:49:39;39.20;;;5.93;;
20657;SDS011;10488;50.846;4.078;2023-01-05T08:52:05;34.67;;;5.97;;
20657;SDS011;10488;50.846;4.078;2023-01-05T08:54:32;32.15;;;5.97;;
20657;SDS011;10488;50.846;4.078;2023-01-05T08:56:58;33.90;;;5.85;;
20657;SDS011;10488;50.846;4.078;2023-01-05T08:59:23;29.80;;;4.70;;
20657;SDS011;10488;50.846;4.078;2023-01-05T09:01:49;31.98;;;6.32;;
20657;SDS011;10488;50.846;4.078;2023-01-05T09:04:15;39.20;;;7.50;;
20657;SDS011;10488;50.846;4.078;2023-01-05T09:06:41;42.40;;;8.00;;
20657;SDS011;10488;50.846;4.078;2023-01-05T09:09:07;37.90;;;6.75;;
20657;SDS011;10488;50.846;4.078;2023-01-05T09:11:33;40.03;;;6.63;;
20657;SDS011;10488;50.846;4.078;2023-01-05T09:13:59;41.05;;;5.97;;
20657;SDS011;10488;50.846;4.078;2023-01-05T09:16:28;38.42;;;6.47;;
20657;SDS011;10488;50.846;4.078;2023-01-05T09:18:56;30.88;;;5.47;;
20657;SDS011;10488;50.846;4.078;2023-01-05T09:21:23;32.33;;;6.10;;
20657;SDS011;10488;50.846;4.078;2023-01-05T09:23:49;38.53;;;6.78;;
20657;SDS011;10488;50.846;4.078;2023-01-05T09:26:15;27.70;;;5.93;;
20657;SDS011;10488;50.846;4.078;2023-01-05T09:28:41;39.20;;;6.25;;
20657;SDS011;10488;50.846;4.078;2023-01-05T09:31:13;37.45;;;6.38;;
20657;SDS011;10488;50.846;4.078;2023-01-05T09:33:40;44.85;;;6.13;;
20657;SDS011;10488;50.846;4.078;2023-01-05T09:36:06;31.00;;;6.40;;
20657;SDS011;10488;50.846;4.078;2023-01-05T09:38:33;36.00;;;6.38;;
20657;SDS011;10488;50.846;4.078;2023-01-05T09:41:02;33.13;;;5.70;;
20657;SDS011;10488;50.846;4.078;2023-01-05T09:43:35;36.17;;;6.10;;
20657;SDS011;10488;50.846;4.078;2023-01-05T09:46:04;33.05;;;5.20;;
20657;SDS011;10488;50.846;4.078;2023-01-05T09:48:38;34.15;;;5.45;;
20657;SDS011;10488;50.846;4.078;2023-01-05T09:51:05;44.17;;;5.80;;
20657;SDS011;10488;50.846;4.078;2023-01-05T09:53:32;34.65;;;6.07;;
20657;SDS011;10488;50.846;4.078;2023-01-05T09:55:58;27.20;;;4.97;;
20657;SDS011;10488;50.846;4.078;2023-01-05T09:58:25;32.83;;;5.85;;
20657;SDS011;10488;50.846;4.078;2023-01-05T10:01:01;35.58;;;6.05;;
20657;SDS011;10488;50.846;4.078;2023-01-05T10:03:35;31.13;;;5.90;;
20657;SDS011;10488;50.846;4.078;2023-01-05T10:09:20;34.60;;;5.00;;
20657;SDS011;10488;50.846;4.078;2023-01-05T10:12:04;35.30;;;5.70;;
20657;SDS011;10488;50.846;4.078;2023-01-05T10:15:14;41.17;;;5.88;;
20657;SDS011;10488;50.846;4.078;2023-01-05T10:17:42;41.60;;;6.07;;
20657;SDS011;10488;50.846;4.078;2023-01-05T10:20:16;34.33;;;6.10;;
20657;SDS011;10488;50.846;4.078;2023-01-05T10:25:50;30.65;;;5.40;;
20657;SDS011;10488;50.846;4.078;2023-01-05T10:28:41;39.13;;;7.15;;
20657;SDS011;10488;50.846;4.078;2023-01-05T10:31:18;31.70;;;5.38;;
20657;SDS011;10488;50.846;4.078;2023-01-05T10:34:10;24.52;;;5.00;;
20657;SDS011;10488;50.846;4.078;2023-01-05T10:42:05;37.17;;;5.47;;
20657;SDS011;10488;50.846;4.078;2023-01-05T10:44:55;28.85;;;6.07;;
20657;SDS011;10488;50.846;4.078;2023-01-05T10:47:24;40.38;;;6.80;;
20657;SDS011;10488;50.846;4.078;2023-01-05T10:49:55;28.30;;;5.88;;
20657;SDS011;10488;50.846;4.078;2023-01-05T10:52:25;36.25;;;5.55;;
20657;SDS011;10488;50.846;4.078;2023-01-05T10:54:57;28.73;;;5.90;;
20657;SDS011;10488;50.846;4.078;2023-01-05T10:57:31;28.38;;;5.13;;
20657;SDS011;10488;50.846;4.078;2023-01-05T11:00:09;37.55;;;7.30;;
20657;SDS011;10488;50.846;4.078;2023-01-05T11:02:47;37.55;;;6.10;;
20657;SDS011;10488;50.846;4.078;2023-01-05T11:05:26;41.92;;;5.88;;
20657;SDS011;10488;50.846;4.078;2023-01-05T11:07:58;40.40;;;6.18;;
20657;SDS011;10488;50.846;4.078;2023-01-05T11:13:16;36.83;;;6.57;;
20657;SDS011;10488;50.846;4.078;2023-01-05T11:15:51;40.10;;;6.45;;
20657;SDS011;10488;50.846;4.078;2023-01-05T11:21:12;46.53;;;7.13;;
20657;SDS011;10488;50.846;4.078;2023-01-05T11:23:46;35.72;;;5.95;;
20657;SDS011;10488;50.846;4.078;2023-01-05T11:36:57;34.75;;;6.57;;
20657;SDS011;10488;50.846;4.078;2023-01-05T11:39:25;40.75;;;6.47;;
20657;SDS011;10488;50.846;4.078;2023-01-05T11:44:50;38.65;;;6.90;;
20657;SDS011;10488;50.846;4.078;2023-01-05T11:47:18;32.60;;;6.13;;
20657;SDS011;10488;50.846;4.078;2023-01-05T11:52:34;36.80;;;6.68;;
20657;SDS011;10488;50.846;4.078;2023-01-05T11:57:57;39.08;;;7.30;;
20657;SDS011;10488;50.846;4.078;2023-01-05T12:06:34;37.42;;;6.35;;
20657;SDS011;10488;50.846;4.078;2023-01-05T12:14:44;32.85;;;6.55;;
20657;SDS011;10488;50.846;4.078;2023-01-05T12:17:13;40.35;;;8.30;;
20657;SDS011;10488;50.846;4.078;2023-01-05T12:22:15;39.55;;;7.47;;
20657;SDS011;10488;50.846;4.078;2023-01-05T12:28:03;49.40;;;7.53;;
20657;SDS011;10488;50.846;4.078;2023-01-05T12:33:50;41.20;;;7.72;;
20657;SDS011;10488;50.846;4.078;2023-01-05T12:42:32;36.42;;;7.93;;
20657;SDS011;10488;50.846;4.078;2023-01-05T12:48:01;36.10;;;6.82;;
20657;SDS011;10488;50.846;4.078;2023-01-05T12:50:46;33.78;;;6.10;;
20657;SDS011;10488;50.846;4.078;2023-01-05T12:53:22;26.95;;;5.43;;
20657;SDS011;10488;50.846;4.078;2023-01-05T12:55:58;33.90;;;5.38;;
20657;SDS011;10488;50.846;4.078;2023-01-05T12:58:41;32.85;;;6.70;;
20657;SDS011;10488;50.846;4.078;2023-01-05T13:01:18;41.20;;;6.13;;
20657;SDS011;10488;50.846;4.078;2023-01-05T13:04:34;48.42;;;6.78;;
20657;SDS011;10488;50.846;4.078;2023-01-05T13:06:50;35.65;;;6.22;;
20657;SDS011;10488;50.846;4.078;2023-01-05T13:09:19;30.00;;;6.40;;
20657;SDS011;10488;50.846;4.078;2023-01-05T13:12:00;19.75;;;6.00;;
20657;SDS011;10488;50.846;4.078;2023-01-05T13:14:34;29.48;;;6.82;;
20657;SDS011;10488;50.846;4.078;2023-01-05T13:19:34;26.45;;;7.15;;
20657;SDS011;10488;50.846;4.078;2023-01-05T13:22:07;36.65;;;7.93;;
20657;SDS011;10488;50.846;4.078;2023-01-05T13:25:05;33.17;;;8.43;;
20657;SDS011;10488;50.846;4.078;2023-01-05T13:27:38;27.42;;;7.95;;
20657;SDS011;10488;50.846;4.078;2023-01-05T13:30:04;27.73;;;8.63;;
20657;SDS011;10488;50.846;4.078;2023-01-05T13:38:01;26.05;;;6.82;;
20657;SDS011;10488;50.846;4.078;2023-01-05T13:43:41;24.52;;;5.82;;
20657;SDS011;10488;50.846;4.078;2023-01-05T13:49:03;15.20;;;4.40;;
20657;SDS011;10488;50.846;4.078;2023-01-05T13:52:15;17.70;;;4.60;;
20657;SDS011;10488;50.846;4.078;2023-01-05T13:54:54;16.02;;;5.05;;
20657;SDS011;10488;50.846;4.078;2023-01-05T13:57:33;23.08;;;5.05;;
20657;SDS011;10488;50.846;4.078;2023-01-05T14:00:06;14.65;;;4.10;;
20657;SDS011;10488;50.846;4.078;2023-01-05T14:08:27;16.45;;;3.88;;
20657;SDS011;10488;50.846;4.078;2023-01-05T14:11:06;15.13;;;3.63;;
20657;SDS011;10488;50.846;4.078;2023-01-05T14:13:47;8.32;;;3.50;;
20657;SDS011;10488;50.846;4.078;2023-01-05T14:17:00;15.77;;;4.50;;
20657;SDS011;10488;50.846;4.078;2023-01-05T14:19:18;12.70;;;4.72;;
20657;SDS011;10488;50.846;4.078;2023-01-05T14:22:51;11.88;;;4.45;;
20657;SDS011;10488;50.846;4.078;2023-01-05T14:30:42;8.77;;;4.20;;
20657;SDS011;10488;50.846;4.078;2023-01-05T14:33:08;13.35;;;4.55;;
20657;SDS011;10488;50.846;4.078;2023-01-05T14:35:34;12.05;;;4.40;;
20657;SDS011;10488;50.846;4.078;2023-01-05T14:38:04;8.30;;;4.75;;
20657;SDS011;10488;50.846;4.078;2023-01-05T14:40:40;11.25;;;5.05;;
20657;SDS011;10488;50.846;4.078;2023-01-05T14:43:26;16.15;;;5.53;;
20657;SDS011;10488;50.846;4.078;2023-01-05T14:46:07;12.05;;;5.82;;
20657;SDS011;10488;50.846;4.078;2023-01-05T14:48:39;10.10;;;6.00;;
20657;SDS011;10488;50.846;4.078;2023-01-05T14:53:39;10.48;;;6.00;;
20657;SDS011;10488;50.846;4.078;2023-01-05T15:06:45;13.10;;;5.97;;
20657;SDS011;10488;50.846;4.078;2023-01-05T15:31:56;12.57;;;6.40;;
20657;SDS011;10488;50.846;4.078;2023-01-05T15:40:01;14.15;;;7.75;;
20657;SDS011;10488;50.846;4.078;2023-01-05T15:45:03;13.45;;;8.00;;
20657;SDS011;10488;50.846;4.078;2023-01-05T15:47:35;13.70;;;8.70;;
20657;SDS011;10488;50.846;4.078;2023-01-05T15:50:03;13.52;;;8.18;;
20657;SDS011;10488;50.846;4.078;2023-01-05T15:52:35;14.18;;;9.35;;
20657;SDS011;10488;50.846;4.078;2023-01-05T15:55:10;18.40;;;9.23;;
20657;SDS011;10488;50.846;4.078;2023-01-05T15:57:39;12.57;;;9.15;;
20657;SDS011;10488;50.846;4.078;2023-01-05T16:00:19;15.63;;;10.52;;
20657;SDS011;10488;50.846;4.078;2023-01-05T16:02:47;14.23;;;7.78;;
20657;SDS011;10488;50.846;4.078;2023-01-05T16:05:14;12.13;;;8.15;;
20657;SDS011;10488;50.846;4.078;2023-01-05T16:12:57;14.00;;;8.40;;
20657;SDS011;10488;50.846;4.078;2023-01-05T16:15:37;11.23;;;8.57;;
20657;SDS011;10488;50.846;4.078;2023-01-05T16:18:05;12.00;;;8.07;;
20657;SDS011;10488;50.846;4.078;2023-01-05T16:20:35;11.73;;;7.75;;
20657;SDS011;10488;50.846;4.078;2023-01-05T16:25:39;11.25;;;7.15;;
20657;SDS011;10488;50.846;4.078;2023-01-05T16:28:10;9.02;;;7.13;;
20657;SDS011;10488;50.846;4.078;2023-01-05T16:30:42;11.38;;;8.20;;
20657;SDS011;10488;50.846;4.078;2023-01-05T16:35:45;14.15;;;11.35;;
20657;SDS011;10488;50.846;4.078;2023-01-05T16:38:23;10.57;;;6.90;;
20657;SDS011;10488;50.846;4.078;2023-01-05T16:40:55;8.65;;;6.90;;
20657;SDS011;10488;50.846;4.078;2023-01-05T16:53:32;5.35;;;4.38;;
20657;SDS011;10488;50.846;4.078;2023-01-05T16:56:00;5.63;;;4.13;;
20657;SDS011;10488;50.846;4.078;2023-01-05T17:03:44;4.80;;;3.90;;
20657;SDS011;10488;50.846;4.078;2023-01-05T17:08:47;4.35;;;3.90;;
20657;SDS011;10488;50.846;4.078;2023-01-05T17:11:13;5.13;;;4.03;;
20657;SDS011;10488;50.846;4.078;2023-01-05T17:13:44;5.78;;;4.43;;
20657;SDS011;10488;50.846;4.078;2023-01-05T17:16:12;6.93;;;4.50;;
20657;SDS011;10488;50.846;4.078;2023-01-05T17:18:38;6.10;;;4.43;;
20657;SDS011;10488;50.846;4.078;2023-01-05T17:21:04;5.15;;;4.30;;
20657;SDS011;10488;50.846;4.078;2023-01-05T17:23:35;5.45;;;4.60;;
20657;SDS011;10488;50.846;4.078;2023-01-05T17:26:10;7.32;;;5.18;;
20657;SDS011;10488;50.846;4.078;2023-01-05T17:28:42;6.88;;;5.15;;
20657;SDS011;10488;50.846;4.078;2023-01-05T17:31:08;7.97;;;4.78;;
20657;SDS011;10488;50.846;4.078;2023-01-05T17:33:34;8.57;;;6.15;;
20657;SDS011;10488;50.846;4.078;2023-01-05T17:36:00;8.15;;;6.70;;
20657;SDS011;10488;50.846;4.078;2023-01-05T17:38:27;10.73;;;7.68;;
20657;SDS011;10488;50.846;4.078;2023-01-05T17:40:53;11.75;;;7.47;;
20657;SDS011;10488;50.846;4.078;2023-01-05T17:43:19;9.98;;;7.05;;
20657;SDS011;10488;50.846;4.078;2023-01-05T17:45:44;10.98;;;7.32;;
20657;SDS011;10488;50.846;4.078;2023-01-05T17:48:10;8.55;;;6.20;;
20657;SDS011;10488;50.846;4.078;2023-01-05T17:50:36;6.85;;;5.57;;
20657;SDS011;10488;50.846;4.078;2023-01-05T17:53:03;7.70;;;5.05;;
20657;SDS011;10488;50.846;4.078;2023-01-05T17:55:29;5.05;;;3.63;;
20657;SDS011;10488;50.846;4.078;2023-01-05T17:57:55;6.72;;;3.85;;